createdAt,value
2018-04-17T00:00:10.117Z,99.99
2018-04-17T00:10:07.881Z,99.99
2018-04-17T00:20:02.981Z,99.99
2018-04-17T00:30:00.338Z,99.99
2018-04-17T00:39:59.106Z,99.99
2018-04-17T00:49:56.099Z,99.99
2018-04-17T00:59:51.637Z,99.99
2018-04-17T01:09:49.545Z,99.99
2018-04-17T01:19:48.159Z,99.99
2018-04-17T01:29:46.315Z,99.99
2018-04-17T01:39:43.736Z,99.99
2018-04-17T01:49:40.652Z,99.99
2018-04-17T01:59:37.008Z,99.99
2018-04-17T02:09:35.490Z,99.99
2018-04-17T02:19:32.729Z,99.99
2018-04-17T02:29:30.743Z,99.99
2018-04-17T02:39:27.335Z,99.99
2018-04-17T02:49:24.084Z,99.99
2018-04-17T02:59:22.514Z,99.99
2018-04-17T03:09:21.106Z,99.99
2018-04-17T03:19:18.248Z,99.99
2018-04-17T03:29:14.153Z,99.99
2018-04-17T03:39:12.078Z,99.99
2018-04-17T03:49:09.803Z,99.99
2018-04-17T03:59:06.930Z,99.99
2018-04-17T04:09:03.502Z,99.99
2018-04-17T04:19:01.290Z,99.99
2018-04-17T04:28:59.413Z,99.99
2018-04-17T04:38:53.319Z,99.99
2018-04-17T04:48:51.884Z,99.99
2018-04-17T04:58:46.835Z,99.99
2018-04-17T05:08:43.565Z,99.99
2018-04-17T05:18:41.625Z,99.99
2018-04-17T05:28:40.165Z,99.99
2018-04-17T05:38:36.282Z,99.99
2018-04-17T05:48:33.448Z,99.99
2018-04-17T05:58:29.283Z,99.99
2018-04-17T06:08:27.621Z,99.99
2018-04-17T06:18:24.335Z,99.99
2018-04-17T06:28:19.262Z,98.91
2018-04-17T06:38:16.821Z,98.50
2018-04-17T06:48:12.841Z,96.58
2018-04-17T06:58:08.280Z,99.99
2018-04-17T07:08:02.487Z,99.99
2018-04-17T07:17:58.135Z,99.93
2018-04-17T07:27:51.477Z,98.37
2018-04-17T07:37:46.952Z,95.61
2018-04-17T07:47:40.331Z,96.06
2018-04-17T07:57:35.543Z,96.77
2018-04-17T08:07:32.445Z,92.45
2018-04-17T08:17:26.997Z,84.77
2018-04-17T08:27:22.275Z,83.33
2018-04-17T08:37:20.254Z,81.18
2018-04-17T08:47:18.710Z,80.57
2018-04-17T08:57:11.097Z,75.88
2018-04-17T09:07:08.092Z,74.57
2018-04-17T09:17:05.217Z,72.43
2018-04-17T09:27:00.936Z,68.19
2018-04-17T09:36:56.946Z,67.82
2018-04-17T09:46:51.689Z,65.75
2018-04-17T09:56:46.044Z,65.31
2018-04-17T10:06:44.388Z,64.86
2018-04-17T10:16:21.425Z,68.82
2018-04-17T10:25:59.027Z,68.88
2018-04-17T10:35:36.372Z,68.08
2018-04-17T10:45:13.819Z,67.07
2018-04-17T10:54:50.323Z,65.83
2018-04-17T11:04:28.079Z,65.97
2018-04-17T11:14:05.488Z,63.96
2018-04-17T11:23:43.361Z,62.23
2018-04-17T11:33:21.017Z,63.87
2018-04-17T11:42:57.496Z,63.33
2018-04-17T11:52:34.352Z,61.35
2018-04-17T12:02:11.282Z,65.44
2018-04-17T12:11:48.406Z,64.34
2018-04-17T12:21:26.688Z,61.54
2018-04-17T12:31:05.893Z,60.08
2018-04-17T12:40:44.449Z,56.17
2018-04-17T12:50:23.292Z,60.93
2018-04-17T12:59:59.685Z,53.89
2018-04-17T13:09:37.007Z,56.45
2018-04-17T13:19:12.587Z,55.17
2018-04-17T13:28:52.160Z,54.32
2018-04-17T13:38:29.883Z,58.82
2018-04-17T13:48:06.336Z,55.67
2018-04-17T13:57:48.630Z,49.33
2018-04-17T14:07:32.545Z,51.35
2018-04-17T14:17:08.708Z,46.37
2018-04-17T14:26:43.147Z,48.60
2018-04-17T14:36:20.974Z,50.54
2018-04-17T14:45:47.550Z,52.49
2018-04-17T14:55:23.229Z,54.39
2018-04-17T15:05:07.011Z,53.12
2018-04-17T15:14:49.150Z,48.83
2018-04-17T15:24:36.343Z,46.72
2018-04-17T15:34:07.461Z,47.41
2018-04-17T15:43:43.109Z,50.60
2018-04-17T15:53:23.397Z,48.88
2018-04-17T16:02:54.205Z,52.67
2018-04-17T16:12:23.920Z,55.32
2018-04-17T16:21:51.233Z,54.97
2018-04-17T16:31:27.107Z,55.00
2018-04-17T16:41:03.382Z,57.46
2018-04-17T16:50:39.475Z,60.31
2018-04-17T17:00:15.529Z,58.62
2018-04-17T17:09:51.582Z,60.67
2018-04-17T17:19:28.630Z,59.08
2018-04-17T17:29:04.154Z,60.25
2018-04-17T17:38:58.893Z,63.67
2018-04-17T17:48:52.324Z,67.47
2018-04-17T17:58:46.387Z,68.55
2018-04-17T18:08:41.176Z,71.94
2018-04-17T18:18:37.224Z,72.98
2018-04-17T18:28:32.863Z,76.51
2018-04-17T18:38:26.402Z,77.26
2018-04-17T18:48:22.181Z,80.06
2018-04-17T18:58:19.139Z,81.21
2018-04-17T19:08:15.079Z,81.65
2018-04-17T19:18:11.524Z,81.49
2018-04-17T19:28:06.740Z,83.41
2018-04-17T19:38:02.723Z,82.44
2018-04-17T19:47:59.042Z,84.61
2018-04-17T19:57:52.646Z,85.93
2018-04-17T20:07:48.418Z,86.77
2018-04-17T20:17:44.062Z,89.50
2018-04-17T20:27:39.539Z,91.82
2018-04-17T20:37:35.638Z,91.41
2018-04-17T20:47:33.217Z,93.59
2018-04-17T20:57:29.245Z,94.24
2018-04-17T21:07:23.075Z,92.41
2018-04-17T21:17:20.562Z,93.83
2018-04-17T21:27:18.044Z,94.89
2018-04-17T21:37:13.199Z,95.75
2018-04-17T21:47:09.521Z,95.95
2018-04-17T21:57:07.519Z,95.08
2018-04-17T22:07:04.476Z,96.30
2018-04-17T22:16:58.880Z,97.53
2018-04-17T22:26:54.450Z,97.16
2018-04-17T22:36:50.205Z,97.52
2018-04-17T22:46:46.860Z,98.18
2018-04-17T22:56:45.769Z,99.80
2018-04-17T23:06:40.885Z,99.09
2018-04-17T23:16:36.213Z,99.65
2018-04-17T23:26:34.029Z,99.99
2018-04-17T23:36:29.813Z,99.99
2018-04-17T23:46:25.367Z,99.99
2018-04-17T23:56:22.420Z,99.99
